createdAt,value
2018-07-24T00:01:49.279Z,99950.06
2018-07-24T00:04:17.507Z,99949.78
2018-07-24T00:06:46.080Z,99956.23
2018-07-24T00:09:14.746Z,99948.19
2018-07-24T00:11:42.435Z,99951.77
2018-07-24T00:14:10.117Z,99947.92
2018-07-24T00:16:38.098Z,99947.98
2018-07-24T00:19:05.790Z,99940.59
2018-07-24T00:21:33.478Z,99935.39
2018-07-24T00:24:01.167Z,99934.75
2018-07-24T00:26:29.878Z,99938.64
2018-07-24T00:28:57.570Z,99933.93
2018-07-24T00:31:25.298Z,99943.38
2018-07-24T00:33:53.262Z,99939.70
2018-07-24T00:36:20.990Z,99929.92
2018-07-24T00:38:48.699Z,99929.23
2018-07-24T00:41:16.419Z,99934.80
2018-07-24T00:43:44.408Z,99930.41
2018-07-24T00:46:12.098Z,99936.84
2018-07-24T00:48:39.774Z,99929.56
2018-07-24T00:51:07.750Z,99936.16
2018-07-24T00:53:35.447Z,99939.39
2018-07-24T00:56:03.143Z,99932.80
2018-07-24T00:58:30.839Z,99931.81
2018-07-24T01:00:58.946Z,99930.14
2018-07-24T01:03:26.649Z,99928.62
2018-07-24T01:05:54.355Z,99931.00
2018-07-24T01:08:22.891Z,99929.98
2018-07-24T01:10:50.856Z,99923.23
2018-07-24T01:13:18.534Z,99924.09
2018-07-24T01:15:46.215Z,99926.13
2018-07-24T01:18:13.875Z,99922.58
2018-07-24T01:20:41.878Z,99928.50
2018-07-24T01:23:10.435Z,99925.97
2018-07-24T01:25:38.119Z,99920.24
2018-07-24T01:28:05.818Z,99920.90
2018-07-24T01:30:33.791Z,99927.84
2018-07-24T01:33:01.675Z,99927.65
2018-07-24T01:35:29.337Z,99923.27
2018-07-24T01:37:56.973Z,99925.97
2018-07-24T01:40:25.455Z,99921.79
2018-07-24T01:42:54.906Z,99918.93
2018-07-24T01:45:22.508Z,99915.38
2018-07-24T01:47:50.100Z,99919.26
2018-07-24T01:50:18.028Z,99910.17
2018-07-24T01:52:45.671Z,99913.93
2018-07-24T01:55:13.269Z,99912.08
2018-07-24T01:57:40.931Z,99910.27
2018-07-24T02:00:09.249Z,99906.58
2018-07-24T02:02:36.831Z,99904.89
2018-07-24T02:05:04.464Z,99907.26
2018-07-24T02:07:32.107Z,99900.22
2018-07-24T02:10:00.156Z,99905.93
2018-07-24T02:12:27.788Z,99903.72
2018-07-24T02:14:55.446Z,99906.25
2018-07-24T02:17:23.070Z,99897.50
2018-07-24T02:19:51.017Z,99900.02
2018-07-24T02:22:18.653Z,99907.29
2018-07-24T02:24:46.548Z,99891.80
2018-07-24T02:27:14.175Z,99897.84
2018-07-24T02:29:42.058Z,99895.48
2018-07-24T02:32:09.688Z,99904.59
2018-07-24T02:34:37.325Z,99904.25
2018-07-24T02:37:04.976Z,99894.48
2018-07-24T02:39:32.853Z,99897.67
2018-07-24T02:42:00.442Z,99895.66
2018-07-24T02:44:28.039Z,99893.83
2018-07-24T02:46:55.680Z,99891.78
2018-07-24T02:49:23.567Z,99895.69
2018-07-24T02:51:51.154Z,99896.67
2018-07-24T02:54:20.268Z,99894.66
2018-07-24T02:56:48.193Z,99895.84
2018-07-24T02:59:15.795Z,99895.86
2018-07-24T03:01:43.446Z,99900.22
2018-07-24T03:04:11.357Z,99896.69
2018-07-24T03:06:38.954Z,99901.24
2018-07-24T03:09:06.542Z,99896.03
2018-07-24T03:11:34.139Z,99894.86
2018-07-24T03:14:02.060Z,99892.16
2018-07-24T03:16:29.680Z,99891.64
2018-07-24T03:18:57.287Z,99899.22
2018-07-24T03:21:25.227Z,99901.59
2018-07-24T03:23:52.929Z,99905.45
2018-07-24T03:26:20.644Z,99906.30
2018-07-24T03:28:48.337Z,99901.08
2018-07-24T03:31:16.306Z,99902.92
2018-07-24T03:33:43.948Z,99903.23
2018-07-24T03:36:12.188Z,99900.22
2018-07-24T03:38:39.831Z,99896.51
2018-07-24T03:41:07.747Z,99905.25
2018-07-24T03:43:35.663Z,99899.38
2018-07-24T03:46:03.328Z,99902.41
2018-07-24T03:48:31.857Z,99906.95
2018-07-24T03:50:59.810Z,99909.16
2018-07-24T03:53:27.468Z,99913.70
2018-07-24T03:55:55.106Z,99915.72
2018-07-24T03:58:23.147Z,99915.70
2018-07-24T04:00:51.088Z,99918.09
2018-07-24T04:03:18.695Z,99909.33
2018-07-24T04:05:46.331Z,99909.83
2018-07-24T04:08:13.953Z,99903.94
2018-07-24T04:10:41.829Z,99915.22
2018-07-24T04:13:09.456Z,99910.34
2018-07-24T04:15:37.103Z,99911.36
2018-07-24T04:18:04.708Z,99907.99
2018-07-24T04:20:32.807Z,99907.66
2018-07-24T04:23:00.461Z,99909.16
2018-07-24T04:25:28.073Z,99903.25
2018-07-24T04:27:56.779Z,99901.91
2018-07-24T04:30:24.409Z,99900.21
2018-07-24T04:32:52.024Z,99900.21
2018-07-24T04:35:19.959Z,99896.50
2018-07-24T04:37:47.595Z,99898.54
2018-07-24T04:40:15.268Z,99901.37
2018-07-24T04:42:44.248Z,99899.17
2018-07-24T04:45:12.156Z,99891.09
2018-07-24T04:47:39.795Z,99897.52
2018-07-24T04:50:07.424Z,99895.98
2018-07-24T04:52:35.064Z,99893.25
2018-07-24T04:55:02.969Z,99890.01
2018-07-24T04:57:30.574Z,99892.34
2018-07-24T04:59:58.191Z,99899.02
2018-07-24T05:02:26.112Z,99888.88
2018-07-24T05:04:53.770Z,99897.25
2018-07-24T05:07:22.024Z,99897.38
2018-07-24T05:09:49.941Z,99897.52
2018-07-24T05:12:17.606Z,99898.94
2018-07-24T05:14:45.264Z,99906.48
2018-07-24T05:17:13.180Z,99904.36
2018-07-24T05:19:41.816Z,99898.50
2018-07-24T05:22:09.467Z,99895.83
2018-07-24T05:24:37.393Z,99900.61
2018-07-24T05:27:05.046Z,99903.25
2018-07-24T05:29:32.700Z,99898.58
2018-07-24T05:32:00.622Z,99904.44
2018-07-24T05:34:28.219Z,99901.47
2018-07-24T05:36:55.844Z,99897.26
2018-07-24T05:39:23.719Z,99900.34
2018-07-24T05:41:51.346Z,99897.50
2018-07-24T05:44:19.696Z,99898.05
2018-07-24T05:46:47.609Z,99896.25
2018-07-24T05:49:15.299Z,99902.13
2018-07-24T05:51:44.275Z,99903.66
2018-07-24T05:54:12.197Z,99900.07
2018-07-24T05:56:39.823Z,99897.65
2018-07-24T05:59:07.509Z,99885.56
2018-07-24T06:01:35.464Z,99891.28
2018-07-24T06:04:03.123Z,99892.86
2018-07-24T06:06:30.747Z,99890.08
2018-07-24T06:08:59.538Z,99890.19
2018-07-24T06:11:27.189Z,99887.77
2018-07-24T06:13:54.851Z,99892.16
2018-07-24T06:16:22.719Z,99893.98
2018-07-24T06:18:50.367Z,99893.09
2018-07-24T06:21:17.982Z,99883.23
2018-07-24T06:23:45.885Z,99889.98
2018-07-24T06:26:13.532Z,99885.24
2018-07-24T06:28:41.143Z,99885.11
2018-07-24T06:31:09.010Z,99887.77
2018-07-24T06:33:36.650Z,99886.77
2018-07-24T06:36:04.267Z,99888.59
2018-07-24T06:38:32.231Z,99881.59
2018-07-24T06:40:59.872Z,99880.05
2018-07-24T06:43:27.505Z,99885.75
2018-07-24T06:45:55.508Z,99883.74
2018-07-24T06:48:23.114Z,99881.33
2018-07-24T06:50:50.713Z,99883.11
2018-07-24T06:53:18.619Z,99879.72
2018-07-24T06:55:46.225Z,99880.99
2018-07-24T06:58:13.839Z,99884.61
2018-07-24T07:00:41.732Z,99882.16
2018-07-24T07:03:09.582Z,99878.44
2018-07-24T07:05:37.207Z,99885.61
2018-07-24T07:08:06.274Z,99879.58
2018-07-24T07:10:34.726Z,99881.18
2018-07-24T07:13:03.231Z,99877.63
2018-07-24T07:15:31.172Z,99875.62
2018-07-24T07:17:58.755Z,99870.84
2018-07-24T07:20:27.109Z,99872.71
2018-07-24T07:22:55.106Z,99870.48
2018-07-24T07:25:22.722Z,99866.56
2018-07-24T07:27:52.193Z,99862.56
2018-07-24T07:30:20.826Z,99863.28
2018-07-24T07:32:48.488Z,99854.05
2018-07-24T07:35:16.110Z,99847.73
2018-07-24T07:37:45.017Z,99849.17
2018-07-24T07:40:12.760Z,99844.69
2018-07-24T07:42:40.647Z,99842.72
2018-07-24T07:45:08.565Z,99841.70
2018-07-24T07:47:36.208Z,99846.55
2018-07-24T07:50:03.858Z,99844.07
2018-07-24T07:52:31.795Z,99845.44
2018-07-24T07:54:59.475Z,99843.73
2018-07-24T07:57:27.090Z,99838.73
2018-07-24T07:59:56.518Z,99836.41
2018-07-24T08:02:24.209Z,99838.71
2018-07-24T08:04:52.452Z,99845.93
2018-07-24T08:07:20.350Z,99845.44
2018-07-24T08:09:48.657Z,99839.98
2018-07-24T08:12:16.329Z,99839.45
2018-07-24T08:14:45.236Z,99843.48
2018-07-24T08:17:12.873Z,99838.22
2018-07-24T08:19:40.589Z,99844.52
2018-07-24T08:22:08.505Z,99844.64
2018-07-24T08:24:37.303Z,99842.30
2018-07-24T08:27:06.540Z,99838.70
2018-07-24T08:29:34.430Z,99831.25
2018-07-24T08:32:02.212Z,99829.02
2018-07-24T08:34:29.860Z,99832.23
2018-07-24T08:36:57.740Z,99831.34
2018-07-24T08:39:25.393Z,99828.42
2018-07-24T08:41:53.507Z,99828.81
2018-07-24T08:44:23.367Z,99827.32
2018-07-24T08:46:51.567Z,99825.25
2018-07-24T08:49:19.170Z,99827.30
2018-07-24T08:51:47.120Z,99830.47
2018-07-24T08:54:14.874Z,99826.13
2018-07-24T08:56:42.559Z,99829.49
2018-07-24T08:59:10.435Z,99830.99
2018-07-24T09:01:38.076Z,99826.73
2018-07-24T09:04:05.706Z,99819.09
2018-07-24T09:06:33.618Z,99820.23
2018-07-24T09:09:02.241Z,99815.40
2018-07-24T09:11:31.114Z,99814.16
2018-07-24T09:13:59.044Z,99812.67
2018-07-24T09:16:26.656Z,99813.09
2018-07-24T09:18:54.299Z,99813.84
2018-07-24T09:21:23.187Z,99815.63
2018-07-24T09:23:51.539Z,99812.17
2018-07-24T09:26:20.316Z,99807.34
2018-07-24T09:28:48.237Z,99816.27
2018-07-24T09:31:15.860Z,99810.69
2018-07-24T09:33:43.468Z,99815.27
2018-07-24T09:36:11.387Z,99812.94
2018-07-24T09:38:39.535Z,99809.23
2018-07-24T09:41:08.088Z,99811.73
2018-07-24T09:43:36.839Z,99810.13
2018-07-24T09:46:04.472Z,99804.64
2018-07-24T09:48:32.244Z,99808.06
2018-07-24T09:51:00.170Z,99808.78
2018-07-24T09:53:28.493Z,99802.06
2018-07-24T09:55:56.157Z,99805.51
2018-07-24T09:58:24.893Z,99808.95
2018-07-24T10:00:57.459Z,99797.74
2018-07-24T10:03:25.091Z,99801.73
2018-07-24T10:05:52.728Z,99802.07
2018-07-24T10:08:21.489Z,99794.05
2018-07-24T10:10:49.399Z,99791.49
2018-07-24T10:13:17.176Z,99788.11
2018-07-24T10:15:44.717Z,99785.20
2018-07-24T10:18:13.027Z,99779.77
2018-07-24T10:20:40.676Z,99775.38
2018-07-24T10:23:08.516Z,99778.38
2018-07-24T10:25:37.330Z,99774.95
2018-07-24T10:28:06.461Z,99771.00
2018-07-24T10:30:34.059Z,99769.20
2018-07-24T10:33:02.673Z,99765.47
2018-07-24T10:35:30.457Z,99757.52
2018-07-24T10:37:59.487Z,99757.80
2018-07-24T10:40:27.395Z,99758.75
2018-07-24T10:42:55.000Z,99750.47
2018-07-24T10:45:23.211Z,99753.49
2018-07-24T10:47:51.191Z,99743.93
2018-07-24T10:50:18.970Z,99745.73
2018-07-24T10:52:46.598Z,99745.53
2018-07-24T10:55:14.518Z,99744.75
2018-07-24T10:57:42.129Z,99742.15
2018-07-24T11:00:09.970Z,99745.42
2018-07-24T11:02:38.450Z,99742.27
2018-07-24T11:05:06.067Z,99749.46
2018-07-24T11:07:33.694Z,99745.44
2018-07-24T11:10:01.634Z,99742.66
2018-07-24T11:12:29.254Z,99740.25
2018-07-24T11:14:57.682Z,99733.82
2018-07-24T11:17:25.638Z,99731.09
2018-07-24T11:19:53.326Z,99733.20
2018-07-24T11:22:21.724Z,99726.52
2018-07-24T11:24:50.520Z,99725.92
2018-07-24T11:27:18.362Z,99717.97
2018-07-24T11:29:46.016Z,99723.14
2018-07-24T11:32:13.886Z,99722.38
2018-07-24T11:34:41.459Z,99719.32
2018-07-24T11:37:09.191Z,99717.41
2018-07-24T11:39:38.268Z,99711.34
2018-07-24T11:42:08.370Z,99714.59
2018-07-24T11:44:35.948Z,99704.86
2018-07-24T11:47:04.525Z,99699.65
2018-07-24T11:49:32.143Z,99701.19
2018-07-24T11:52:00.579Z,99696.81
2018-07-24T11:54:30.674Z,99699.70
2018-07-24T11:57:01.773Z,99687.68
2018-07-24T11:59:29.476Z,99693.83
2018-07-24T12:01:57.407Z,99689.23
2018-07-24T12:04:25.385Z,99688.13
2018-07-24T12:06:53.859Z,99689.66
2018-07-24T12:09:22.887Z,99683.97
2018-07-24T12:11:50.586Z,99682.88
2018-07-24T12:14:18.445Z,99676.55
2018-07-24T12:16:46.408Z,99675.77
2018-07-24T12:19:13.963Z,99675.89
2018-07-24T12:21:41.545Z,99673.97
2018-07-24T12:24:10.580Z,99668.62
2018-07-24T12:26:38.161Z,99668.48
2018-07-24T12:29:05.770Z,99672.28
2018-07-24T12:31:33.610Z,99668.03
2018-07-24T12:34:02.346Z,99663.33
2018-07-24T12:36:29.978Z,99665.20
2018-07-24T12:38:58.461Z,99662.44
2018-07-24T12:41:26.037Z,99659.37
2018-07-24T12:43:55.242Z,99654.11
2018-07-24T12:46:23.141Z,99653.05
2018-07-24T12:48:51.264Z,99652.60
2018-07-24T12:51:19.522Z,99641.34
2018-07-24T12:53:49.337Z,99641.06
2018-07-24T12:56:18.311Z,99640.45
2018-07-24T12:58:47.427Z,99644.14
2018-07-24T13:01:17.172Z,99645.57
2018-07-24T13:03:44.835Z,99636.55
2018-07-24T13:06:12.695Z,99637.45
2018-07-24T13:08:41.601Z,99638.92
2018-07-24T13:11:10.216Z,99632.05
2018-07-24T13:13:39.241Z,99632.44
2018-07-24T13:16:08.705Z,99631.93
2018-07-24T13:18:36.331Z,99624.84
2018-07-24T13:21:10.360Z,99619.95
2018-07-24T13:23:41.101Z,99625.54
2018-07-24T13:26:08.767Z,99607.73
2018-07-24T13:28:36.433Z,99614.33
2018-07-24T13:31:04.326Z,99613.89
2018-07-24T13:33:32.677Z,99608.68
2018-07-24T13:36:01.952Z,99616.84
2018-07-24T13:38:31.265Z,99612.23
2018-07-24T13:40:58.881Z,99611.35
2018-07-24T13:43:26.520Z,99604.89
2018-07-24T13:45:54.465Z,99610.81
2018-07-24T13:48:22.164Z,99606.25
2018-07-24T13:50:49.799Z,99606.81
2018-07-24T13:53:18.423Z,99604.47
2018-07-24T13:55:46.808Z,99603.39
2018-07-24T13:58:14.462Z,99604.50
2018-07-24T14:00:42.611Z,99602.45
2018-07-24T14:03:10.198Z,99603.16
2018-07-24T14:05:38.551Z,99596.33
2018-07-24T14:08:07.045Z,99599.27
2018-07-24T14:10:34.691Z,99594.20
2018-07-24T14:13:02.357Z,99592.81
2018-07-24T14:15:30.526Z,99590.55
2018-07-24T14:17:58.316Z,99582.84
2018-07-24T14:20:27.031Z,99586.84
2018-07-24T14:22:54.929Z,99584.78
2018-07-24T14:25:22.555Z,99583.48
2018-07-24T14:27:50.174Z,99584.91
2018-07-24T14:30:18.260Z,99582.52
2018-07-24T14:32:47.087Z,99577.92
2018-07-24T14:35:15.289Z,99578.52
2018-07-24T14:37:45.303Z,99573.11
2018-07-24T14:40:20.299Z,99570.02
2018-07-24T14:42:48.251Z,99573.16
2018-07-24T14:45:15.890Z,99568.00
2018-07-24T14:47:44.088Z,99575.39
2018-07-24T14:50:13.376Z,99576.84
2018-07-24T14:52:43.256Z,99567.02
2018-07-24T14:55:10.887Z,99564.19
2018-07-24T15:02:47.518Z,99567.31
2018-07-24T15:05:15.464Z,99564.62
2018-07-24T15:07:44.286Z,99568.95
2018-07-24T15:10:11.919Z,99561.43
2018-07-24T15:12:39.822Z,99557.56
2018-07-24T15:15:07.450Z,99551.54
2018-07-24T15:17:35.112Z,99552.55
2018-07-24T15:20:03.984Z,99554.69
2018-07-24T15:22:31.637Z,99553.30
2018-07-24T15:24:59.275Z,99555.33
2018-07-24T15:27:27.211Z,99553.89
2018-07-24T15:29:54.810Z,99552.13
2018-07-24T15:32:22.474Z,99544.67
2018-07-24T15:34:52.506Z,99547.61
2018-07-24T15:37:20.084Z,99544.63
2018-07-24T15:39:47.692Z,99543.31
2018-07-24T15:42:15.617Z,99546.37
2018-07-24T15:44:45.415Z,99540.56
2018-07-24T15:47:13.079Z,99545.82
2018-07-24T15:49:41.698Z,99540.70
2018-07-24T15:52:09.324Z,99543.87
2018-07-24T15:54:37.204Z,99544.27
2018-07-24T15:57:05.811Z,99541.31
2018-07-24T15:59:35.379Z,99543.06
2018-07-24T16:02:05.758Z,99539.63
2018-07-24T16:04:35.640Z,99542.66
2018-07-24T16:07:04.119Z,99540.54
2018-07-24T16:09:33.414Z,99544.77
2018-07-24T16:12:01.360Z,99546.86
2018-07-24T16:14:30.671Z,99544.77
2018-07-24T16:16:58.307Z,99542.19
2018-07-24T16:19:26.316Z,99540.89
2018-07-24T16:21:53.931Z,99543.61
2018-07-24T16:24:21.568Z,99546.38
2018-07-24T16:26:50.012Z,99542.00
2018-07-24T16:29:18.126Z,99540.69
2018-07-24T16:31:45.919Z,99544.03
2018-07-24T16:34:13.892Z,99539.58
2018-07-24T16:36:41.545Z,99546.34
2018-07-24T16:39:09.726Z,99535.37
2018-07-24T16:41:38.638Z,99546.55
2018-07-24T16:44:07.249Z,99548.66
2018-07-24T16:46:34.960Z,99539.41
2018-07-24T16:49:02.871Z,99540.83
2018-07-24T16:51:30.551Z,99539.38
2018-07-24T16:53:59.764Z,99539.42
2018-07-24T16:56:28.179Z,99536.24
2018-07-24T16:58:55.787Z,99538.16
2018-07-24T17:01:24.540Z,99539.69
2018-07-24T17:03:56.698Z,99541.16
2018-07-24T17:06:24.387Z,99536.49
2018-07-24T17:08:54.029Z,99540.65
2018-07-24T17:11:25.530Z,99534.53
2018-07-24T17:13:57.221Z,99536.88
2018-07-24T17:16:26.273Z,99534.55
2018-07-24T17:19:00.073Z,99535.98
2018-07-24T17:21:29.161Z,99535.53
2018-07-24T17:23:57.751Z,99531.45
2018-07-24T17:26:25.809Z,99533.12
2018-07-24T17:28:54.406Z,99531.25
2018-07-24T17:31:25.602Z,99536.23
2018-07-24T17:33:54.377Z,99537.08
2018-07-24T17:36:22.022Z,99537.64
2018-07-24T17:38:49.736Z,99532.41
2018-07-24T17:41:19.644Z,99538.75
2018-07-24T17:43:47.338Z,99536.55
2018-07-24T17:46:15.332Z,99537.93
2018-07-24T17:48:44.239Z,99537.60
2018-07-24T17:51:11.893Z,99537.31
2018-07-24T17:53:44.026Z,99539.53
2018-07-24T17:56:13.448Z,99543.91
2018-07-24T17:58:41.877Z,99538.12
2018-07-24T18:01:10.650Z,99539.46
2018-07-24T18:03:38.567Z,99544.09
2018-07-24T18:06:07.143Z,99542.69
2018-07-24T18:08:35.984Z,99551.77
2018-07-24T18:11:09.392Z,99555.62
2018-07-24T18:13:38.298Z,99559.17
2018-07-24T18:16:07.371Z,99558.87
2018-07-24T18:18:35.391Z,99556.92
2018-07-24T18:21:04.785Z,99560.21
2018-07-24T18:23:34.611Z,99556.56
2018-07-24T18:26:03.338Z,99559.26
2018-07-24T18:28:32.356Z,99556.16
2018-07-24T18:31:00.791Z,99564.95
2018-07-24T18:33:29.629Z,99564.63
2018-07-24T18:35:57.255Z,99558.81
2018-07-24T18:38:25.925Z,99558.75
2018-07-24T18:40:53.870Z,99567.78
2018-07-24T18:43:21.547Z,99568.52
2018-07-24T18:45:49.570Z,99566.53
2018-07-24T18:48:17.532Z,99562.92
2018-07-24T18:50:46.350Z,99563.70
2018-07-24T18:53:14.029Z,99566.97
2018-07-24T18:55:42.831Z,99569.11
2018-07-24T18:58:10.470Z,99568.21
2018-07-24T19:00:38.066Z,99566.75
2018-07-24T19:03:06.775Z,99566.09
2018-07-24T19:05:35.000Z,99567.37
2018-07-24T19:08:02.672Z,99563.97
2018-07-24T19:10:30.604Z,99565.53
2018-07-24T19:12:58.289Z,99565.18
2018-07-24T19:15:25.971Z,99561.23
2018-07-24T19:17:55.045Z,99572.72
2018-07-24T19:20:22.720Z,99566.84
2018-07-24T19:22:51.438Z,99573.11
2018-07-24T19:25:21.418Z,99574.97
2018-07-24T19:27:50.997Z,99571.02
2018-07-24T19:30:19.520Z,99581.68
2018-07-24T19:32:49.959Z,99577.20
2018-07-24T19:35:17.963Z,99579.02
2018-07-24T19:37:46.101Z,99580.30
2018-07-24T19:40:15.635Z,99585.19
2018-07-24T19:42:46.496Z,99587.56
2018-07-24T19:45:14.803Z,99589.37
2018-07-24T19:47:44.597Z,99586.55
2018-07-24T19:50:12.304Z,99590.56
2018-07-24T19:52:42.115Z,99592.41
2018-07-24T19:55:10.227Z,99591.75
2018-07-24T19:57:38.560Z,99591.09
2018-07-24T20:00:06.360Z,99594.82
2018-07-24T20:02:34.838Z,99599.06
2018-07-24T20:05:03.451Z,99600.53
2018-07-24T20:07:32.640Z,99601.17
2018-07-24T20:10:01.270Z,99602.06
2018-07-24T20:12:30.405Z,99610.06
2018-07-24T20:14:58.107Z,99607.31
2018-07-24T20:17:27.585Z,99604.86
2018-07-24T20:19:55.212Z,99606.30
2018-07-24T20:22:24.486Z,99612.16
2018-07-24T20:24:53.458Z,99613.63
2018-07-24T20:27:21.100Z,99613.48
2018-07-24T20:29:49.423Z,99612.48
2018-07-24T20:32:21.128Z,99615.11
2018-07-24T20:34:51.140Z,99614.34
2018-07-24T20:37:19.434Z,99616.34
2018-07-24T20:39:50.955Z,99620.00
2018-07-24T20:42:19.117Z,99620.36
2018-07-24T20:44:47.582Z,99617.43
2018-07-24T20:47:16.312Z,99617.50
2018-07-24T20:49:43.964Z,99618.08
2018-07-24T20:52:11.574Z,99620.02
2018-07-24T20:54:41.469Z,99618.61
2018-07-24T20:57:09.977Z,99619.95
2018-07-24T20:59:38.584Z,99614.02
2018-07-24T21:02:06.494Z,99612.92
2018-07-24T21:04:35.994Z,99615.06
2018-07-24T21:07:03.615Z,99614.03
2018-07-24T21:09:31.789Z,99616.77
2018-07-24T21:11:59.451Z,99614.88
2018-07-24T21:14:27.239Z,99616.05
2018-07-24T21:16:55.696Z,99616.88
2018-07-24T21:19:24.384Z,99618.05
2018-07-24T21:21:51.991Z,99614.87
2018-07-24T21:24:20.496Z,99621.23
2018-07-24T21:26:48.138Z,99614.64
2018-07-24T21:29:15.771Z,99615.60
2018-07-24T21:31:43.669Z,99615.23
2018-07-24T21:34:11.330Z,99612.72
2018-07-24T21:36:39.804Z,99616.80
2018-07-24T21:39:08.450Z,99624.81
2018-07-24T21:41:37.319Z,99621.95
2018-07-24T21:44:06.300Z,99625.11
2018-07-24T21:46:34.631Z,99620.63
2018-07-24T21:49:05.909Z,99627.52
2018-07-24T21:51:35.514Z,99631.40
2018-07-24T21:54:03.411Z,99634.80
2018-07-24T21:56:31.040Z,99633.89
2018-07-24T21:59:01.109Z,99635.68
2018-07-24T22:01:28.751Z,99633.11
2018-07-24T22:03:58.612Z,99631.05
2018-07-24T22:06:27.211Z,99632.02
2018-07-24T22:08:55.090Z,99627.23
2018-07-24T22:11:22.662Z,99635.84
2018-07-24T22:13:51.236Z,99631.14
2018-07-24T22:16:21.693Z,99634.53
2018-07-24T22:18:54.209Z,99634.16
2018-07-24T22:21:25.046Z,99635.73
2018-07-24T22:23:53.376Z,99636.69
2018-07-24T22:26:21.799Z,99633.06
2018-07-24T22:28:50.644Z,99635.22
2018-07-24T22:31:20.356Z,99635.59
2018-07-24T22:33:49.693Z,99635.43
2018-07-24T22:36:18.591Z,99638.30
2018-07-24T22:38:46.979Z,99637.18
2018-07-24T22:41:14.651Z,99637.52
2018-07-24T22:43:42.538Z,99641.16
2018-07-24T22:46:13.117Z,99640.85
2018-07-24T22:48:41.478Z,99650.88
2018-07-24T22:51:10.412Z,99650.68
2018-07-24T22:53:39.779Z,99646.59
2018-07-24T22:56:07.415Z,99646.59
2018-07-24T22:58:36.869Z,99644.94
2018-07-24T23:01:05.507Z,99645.67
2018-07-24T23:03:33.266Z,99650.81
2018-07-24T23:06:01.164Z,99652.89
2018-07-24T23:08:28.764Z,99647.14
2018-07-24T23:10:57.412Z,99650.47
2018-07-24T23:13:25.029Z,99647.24
2018-07-24T23:15:53.751Z,99643.16
2018-07-24T23:18:21.368Z,99645.98
2018-07-24T23:20:49.736Z,99646.50
2018-07-24T23:23:18.419Z,99650.06
2018-07-24T23:25:50.092Z,99652.78
2018-07-24T23:28:17.710Z,99645.98
2018-07-24T23:30:46.267Z,99644.73
2018-07-24T23:33:13.890Z,99645.58
2018-07-24T23:35:41.854Z,99644.88
2018-07-24T23:38:09.506Z,99648.05
2018-07-24T23:40:37.191Z,99656.97
2018-07-24T23:43:04.846Z,99657.45
2018-07-24T23:45:32.489Z,99651.48
2018-07-24T23:48:00.761Z,99652.81
2018-07-24T23:50:28.779Z,99653.13
2018-07-24T23:52:56.707Z,99647.16
2018-07-24T23:55:24.365Z,99654.06
2018-07-24T23:57:52.696Z,99654.03
